WEATHER/FLIGHT PLANNING

Hattiesburg Radar

 

 

 

 

Weather Links

Flight Planning Links

 

METAR

2019/05/22 21:53 KHBG 222153Z AUTO 16010KT 10SM FEW049 SCT065 32/20 A3002 RMK AO2 SLP162 T03170200 $

TAF

2019/05/22 18:24 TAF KHBG 221722Z 2218/2318 16011KT P6SM SCT030 FM231000 17001KT 4SM BR OVC003 FM231400 15005KT P6SM BKN015 FM231500 15008KT P6SM SCT250